Time;durP1;ratioP1;P1;durP2;ratioP2;P2;SDS_P1;SDS_P2;PMS_P1;PMS_P2;Temp;Humidity;BMP_temperature;BMP_pressure;BME280_temperature;BME280_humidity;BME280_pressure;Samples;Min_cycle;Max_cycle;Signal;HPM_P1;HPM_P2
2021/12/15 00:02:24;;;;;;;52.63;23.30;;;;;;;11.43;nan;101890.19;4814158;29;20966;-90
2021/12/15 00:04:55;;;;;;;297.20;120.93;;;;;;;11.45;nan;101895.50;4825057;29;21027;-90
2021/12/15 00:07:25;;;;;;;68.53;30.77;;;;;;;11.29;nan;101863.53;4781023;29;20461;-90
2021/12/15 00:09:55;;;;;;;32.20;12.10;;;;;;;11.41;nan;101884.03;4848760;29;20501;-91
2021/12/15 00:12:23;;;;;;;22.73;11.00;;;;;;;11.37;nan;101882.66;4854291;29;20458;-89
2021/12/15 00:15:08;;;;;;;27.93;13.73;;;;;;;11.38;nan;101878.91;4828235;29;20456;-90
2021/12/15 00:17:38;;;;;;;18.50;9.63;;;;;;;11.31;nan;101868.81;4828555;29;20806;-90
2021/12/15 00:20:09;;;;;;;12.20;8.07;;;;;;;11.33;nan;101861.31;4812094;29;20469;-90
2021/12/15 00:22:37;;;;;;;21.40;8.43;;;;;;;11.37;nan;101870.84;4815165;29;20464;-90
2021/12/15 00:25:08;;;;;;;13.90;7.87;;;;;;;11.33;nan;101870.38;4846332;29;20473;-91
2021/12/15 00:27:41;;;;;;;13.30;8.70;;;;;;;11.32;nan;101865.06;4828706;29;20456;-90
2021/12/15 00:30:11;;;;;;;26.53;9.30;;;;;;;11.35;nan;101867.47;4814582;29;20886;-90
2021/12/15 00:32:41;;;;;;;11.80;6.33;;;;;;;11.32;nan;101859.59;4820416;29;20956;-90
2021/12/15 00:35:17;;;;;;;13.03;6.20;;;;;;;11.43;nan;101889.34;4858532;29;20475;-91
2021/12/15 00:37:47;;;;;;;11.30;5.90;;;;;;;11.36;nan;101874.63;4903060;29;20818;-90
2021/12/15 00:40:17;;;;;;;14.40;8.77;;;;;;;11.30;nan;101872.59;4871621;29;20867;-91
2021/12/15 00:42:45;;;;;;;14.07;7.53;;;;;;;11.37;nan;101887.28;4872017;29;20959;-89
2021/12/15 00:45:15;;;;;;;18.93;8.13;;;;;;;11.31;nan;101877.91;4872414;29;20449;-91
2021/12/15 00:47:50;;;;;;;12.30;8.03;;;;;;;11.33;nan;101869.50;4918340;29;20461;-90
2021/12/15 00:50:26;;;;;;;11.80;4.47;;;;;;;11.36;nan;101870.00;4872164;29;20979;-90
2021/12/15 00:52:55;;;;;;;11.10;4.03;;;;;;;11.31;nan;101868.81;4902411;29;20460;-91
2021/12/15 00:55:24;;;;;;;9.93;4.63;;;;;;;11.26;nan;101863.00;4871977;29;20520;-90
2021/12/15 00:57:53;;;;;;;8.13;4.07;;;;;;;11.34;nan;101871.22;4871878;29;20512;-91
2021/12/15 01:00:27;;;;;;;12.00;3.90;;;;;;;11.31;nan;101857.88;4871628;29;20480;-91
2021/12/15 01:02:57;;;;;;;11.40;6.10;;;;;;;11.29;nan;101851.72;4887407;29;20452;-91
2021/12/15 01:05:37;;;;;;;9.43;4.77;;;;;;;11.28;nan;101844.53;4887334;29;20449;-90
2021/12/15 01:08:11;;;;;;;13.30;7.60;;;;;;;11.33;nan;101853.94;4919216;29;20478;-90
2021/12/15 01:11:07;;;;;;;13.77;8.00;;;;;;;11.36;nan;101859.06;4887288;29;21002;-89
2021/12/15 01:22:17;;;;;;;12.70;6.83;;;;;;;11.26;nan;101841.09;4910839;29;20528;-89
2021/12/15 01:24:45;;;;;;;8.50;3.33;;;;;;;11.27;nan;101838.19;4895798;29;20473;-90
2021/12/15 01:27:14;;;;;;;5.67;3.10;;;;;;;11.25;nan;101839.41;4901663;29;20457;-91
2021/12/15 01:29:52;;;;;;;8.90;4.10;;;;;;;11.26;nan;101843.84;4917396;29;20485;-89
2021/12/15 01:32:26;;;;;;;7.20;3.77;;;;;;;11.13;nan;101829.84;4901396;29;20452;-89
2021/12/15 01:34:54;;;;;;;13.73;8.27;;;;;;;11.11;nan;101831.88;4891338;29;20465;-89
2021/12/15 01:37:23;;;;;;;12.13;6.70;;;;;;;11.11;nan;101840.09;4867072;29;20465;-90
2021/12/15 01:39:54;;;;;;;12.67;4.63;;;;;;;11.01;nan;101821.94;4867482;29;20454;-89
2021/12/15 01:42:29;;;;;;;9.20;3.30;;;;;;;11.00;nan;101828.44;4913810;29;20456;-90
2021/12/15 01:47:49;;;;;;;6.97;3.30;;;;;;;10.92;nan;101822.97;4847572;29;20458;-89
2021/12/15 01:50:19;;;;;;;5.43;3.43;;;;;;;10.90;nan;101816.81;4830368;29;20893;-89
2021/12/15 01:52:50;;;;;;;7.20;3.77;;;;;;;10.90;nan;101816.81;4830607;29;20455;-91
2021/12/15 01:55:20;;;;;;;12.40;3.63;;;;;;;10.84;nan;101808.44;4814457;29;20464;-91
2021/12/15 01:57:55;;;;;;;9.60;6.33;;;;;;;10.89;nan;101817.00;4815186;29;20997;-90
2021/12/15 02:00:43;;;;;;;11.57;5.27;;;;;;;10.82;nan;101825.00;4826245;29;20467;-90
2021/12/15 02:03:13;;;;;;;16.43;9.77;;;;;;;10.78;nan;101822.78;4849428;29;20487;-90
2021/12/15 02:05:41;;;;;;;9.43;4.60;;;;;;;10.73;nan;101817.84;4872871;29;20449;-89
2021/12/15 02:08:12;;;;;;;7.97;3.90;;;;;;;10.63;nan;101801.56;4901280;29;20461;-89
2021/12/15 02:10:42;;;;;;;10.57;6.10;;;;;;;10.61;nan;101805.50;4897720;29;20492;-89
2021/12/15 02:13:13;;;;;;;8.93;5.13;;;;;;;10.63;nan;101815.22;4884831;29;20466;-89
2021/12/15 02:15:47;;;;;;;14.53;7.87;;;;;;;10.66;nan;101824.97;4889803;29;20462;-91
2021/12/15 02:18:18;;;;;;;24.23;12.80;;;;;;;10.60;nan;101817.44;4889033;29;20455;-89
2021/12/15 02:21:14;;;;;;;10.70;5.97;;;;;;;10.57;nan;101823.28;4841144;29;20456;-89
2021/12/15 02:23:47;;;;;;;17.90;10.10;;;;;;;10.59;nan;101827.53;4824995;29;20464;-89
2021/12/15 02:26:24;;;;;;;18.67;9.13;;;;;;;10.55;nan;101833.50;4797028;29;20471;-90
2021/12/15 02:28:57;;;;;;;18.40;9.90;;;;;;;10.57;nan;101834.22;4811586;29;20460;-89
2021/12/15 02:34:43;;;;;;;11.60;6.70;;;;;;;10.43;nan;101821.16;4831056;29;20576;-90
2021/12/15 02:37:17;;;;;;;12.93;6.90;;;;;;;10.48;nan;101833.31;4820864;29;20448;-89
2021/12/15 02:40:00;;;;;;;15.30;7.60;;;;;;;10.48;nan;101837.94;4811085;29;20486;-90
2021/12/15 02:42:39;;;;;;;9.60;5.90;;;;;;;10.43;nan;101832.94;4815883;29;20452;-89
2021/12/15 02:45:11;;;;;;;7.83;3.67;;;;;;;10.44;nan;101842.00;4865940;29;20448;-90
2021/12/15 02:47:40;;;;;;;18.13;8.43;;;;;;;10.39;nan;101826.97;4889684;29;20457;-89
2021/12/15 02:50:16;;;;;;;16.80;7.73;;;;;;;10.45;nan;101835.53;4873504;29;20548;-90
2021/12/15 02:52:45;;;;;;;18.67;10.40;;;;;;;10.38;nan;101819.81;4888792;29;20923;-89
2021/12/15 02:55:16;;;;;;;14.13;5.63;;;;;;;10.42;nan;101833.13;4870712;29;20457;-90
2021/12/15 02:58:10;;;;;;;12.50;4.47;;;;;;;10.48;nan;101836.03;4888363;29;20464;-89
2021/12/15 03:00:55;;;;;;;27.17;12.37;;;;;;;10.34;nan;101807.50;4903879;29;20457;-90
2021/12/15 03:04:05;;;;;;;12.03;3.97;;;;;;;10.38;nan;101819.81;4830888;29;20489;-89
2021/12/15 03:06:46;;;;;;;6.33;2.90;;;;;;;10.33;nan;101808.50;4797785;29;20973;-89
2021/12/15 03:17:29;;;;;;;10.07;3.30;;;;;;;10.48;nan;101795.06;4807489;29;20459;-90
2021/12/15 03:19:57;;;;;;;11.00;2.90;;;;;;;10.53;nan;101810.97;4818466;29;20488;-90
2021/12/15 03:22:29;;;;;;;8.40;2.63;;;;;;;10.57;nan;101823.28;4811257;29;20457;-89
2021/12/15 03:24:58;;;;;;;7.87;2.50;;;;;;;10.50;nan;101803.94;4821089;29;20464;-90
2021/12/15 03:34:09;;;;;;;6.07;2.40;;;;;;;10.41;nan;101796.72;4898113;29;20476;-90
2021/12/15 03:39:25;;;;;;;9.80;4.70;;;;;;;10.47;nan;101817.06;4903425;29;20861;-90
2021/12/15 03:42:00;;;;;;;10.80;5.60;;;;;;;10.28;nan;101797.22;4874130;29;20487;-90
2021/12/15 03:44:33;;;;;;;12.67;5.13;;;;;;;10.22;nan;101791.56;4873659;29;20459;-91
2021/12/15 03:47:04;;;;;;;16.13;6.73;;;;;;;10.29;nan;101807.13;4888469;29;20853;-91
2021/12/15 03:49:32;;;;;;;20.73;7.43;;;;;;;10.20;nan;101802.66;4868051;29;20477;-91
2021/12/15 03:51:59;;;;;;;15.40;6.90;;;;;;;10.13;nan;101793.38;4871822;29;20962;-90
2021/12/15 03:54:33;;;;;;;24.47;10.50;;;;;;;10.21;nan;101809.81;4888260;29;20445;-90
2021/12/15 03:57:03;;;;;;;17.53;6.60;;;;;;;10.21;nan;101811.69;4888210;29;20487;-89
2021/12/15 03:59:34;;;;;;;19.57;6.60;;;;;;;10.17;nan;101811.16;4888655;29;20457;-90
2021/12/15 04:02:17;;;;;;;10.40;4.93;;;;;;;10.15;nan;101813.19;4890016;29;20441;-91
2021/12/15 04:04:51;;;;;;;9.90;4.90;;;;;;;10.16;nan;101820.38;4874011;29;20464;-90
2021/12/15 04:07:20;;;;;;;15.83;5.37;;;;;;;10.01;nan;101811.06;4888170;29;20859;-90
2021/12/15 04:09:53;;;;;;;13.00;6.10;;;;;;;10.03;nan;101819.97;4873231;29;20485;-90
2021/12/15 04:12:22;;;;;;;15.33;7.10;;;;;;;9.99;nan;101802.22;4888270;29;20928;-90
2021/12/15 04:15:19;;;;;;;18.87;6.87;;;;;;;9.94;nan;101793.66;4887983;29;20449;-90
2021/12/15 04:17:49;;;;;;;20.13;7.03;;;;;;;10.05;nan;101817.91;4906336;29;20445;-91
2021/12/15 04:20:19;;;;;;;22.17;6.50;;;;;;;9.96;nan;101797.06;4881452;29;20542;-90
2021/12/15 04:22:51;;;;;;;14.23;5.40;;;;;;;10.05;nan;101817.91;4887484;29;20453;-90
2021/12/15 04:25:26;;;;;;;7.67;3.90;;;;;;;9.97;nan;101798.78;4883871;29;20944;-90
2021/12/15 04:28:07;;;;;;;15.33;6.20;;;;;;;9.92;nan;101803.88;4902761;29;20452;-90
2021/12/15 04:30:38;;;;;;;9.60;5.00;;;;;;;9.88;nan;101805.22;4902139;29;20484;-89
2021/12/15 04:33:28;;;;;;;20.63;8.07;;;;;;;9.94;nan;101816.34;4907784;29;20448;-90
2021/12/15 04:35:59;;;;;;;32.73;9.33;;;;;;;9.94;nan;101810.03;4917738;29;20456;-89
2021/12/15 04:38:27;;;;;;;55.17;22.03;;;;;;;9.89;nan;101817.84;4902424;29;20456;-90
2021/12/15 04:40:59;;;;;;;44.67;19.33;;;;;;;9.84;nan;101812.00;4887118;29;20445;-90
2021/12/15 04:43:30;;;;;;;23.70;8.80;;;;;;;9.81;nan;101809.63;4887137;29;20948;-90
2021/12/15 04:46:10;;;;;;;26.90;12.27;;;;;;;9.76;nan;101807.38;4903557;29;20457;-90
2021/12/15 04:48:41;;;;;;;16.93;9.23;;;;;;;9.82;nan;101812.16;4887420;29;20455;-91
2021/12/15 04:51:08;;;;;;;36.10;14.60;;;;;;;9.82;nan;101823.09;4902113;29;20853;-90
2021/12/15 04:53:52;;;;;;;85.70;29.87;;;;;;;9.75;nan;101826.66;4886963;29;20508;-90
2021/12/15 04:56:23;;;;;;;54.23;17.20;;;;;;;9.59;nan;101805.59;4918426;29;20452;-91
2021/12/15 04:59:10;;;;;;;32.30;10.13;;;;;;;9.58;nan;101815.66;4903147;29;20460;-92
2021/12/15 05:01:50;;;;;;;22.33;8.70;;;;;;;9.64;nan;101820.44;4882171;29;20465;-90
2021/12/15 05:04:18;;;;;;;14.70;5.93;;;;;;;9.66;nan;101826.59;4899826;29;20486;-92
2021/12/15 05:06:47;;;;;;;10.07;4.17;;;;;;;9.55;nan;101805.03;4853860;29;20517;-91
2021/12/15 05:09:16;;;;;;;15.70;5.20;;;;;;;9.63;nan;101817.88;4868838;29;20462;-89
2021/12/15 05:11:47;;;;;;;12.30;4.60;;;;;;;9.55;nan;101810.50;4884256;29;20485;-90
2021/12/15 05:14:18;;;;;;;10.33;4.83;;;;;;;9.63;nan;101823.31;4902558;29;20519;-90
2021/12/15 05:16:46;;;;;;;12.53;3.93;;;;;;;9.63;nan;101829.63;4902028;29;20814;-91
2021/12/15 05:19:14;;;;;;;11.50;4.10;;;;;;;9.55;nan;101818.69;4889467;29;20476;-90
2021/12/15 05:21:42;;;;;;;8.57;3.40;;;;;;;9.52;nan;101819.00;4889464;29;20448;-90
2021/12/15 05:24:23;;;;;;;7.03;3.13;;;;;;;9.52;nan;101809.97;4889731;29;20460;-90
2021/12/15 05:26:56;;;;;;;5.20;2.80;;;;;;;9.50;nan;101818.31;4888379;29;20484;-89
2021/12/15 05:29:25;;;;;;;11.30;3.57;;;;;;;9.51;nan;101824.63;4902006;29;20445;-90
2021/12/15 05:32:01;;;;;;;8.00;2.77;;;;;;;9.50;nan;101831.94;4902229;29;20485;-91
2021/12/15 05:34:38;;;;;;;11.23;3.70;;;;;;;9.41;nan;101813.84;4886954;29;20437;-90
2021/12/15 05:37:13;;;;;;;10.37;4.07;;;;;;;9.44;nan;101827.13;4905581;29;20475;-90
2021/12/15 05:39:44;;;;;;;7.20;2.87;;;;;;;9.35;nan;101814.47;4901841;29;20448;-89
2021/12/15 05:42:47;;;;;;;5.67;2.80;;;;;;;9.43;nan;101828.13;4921823;29;20447;-90
2021/12/15 05:45:17;;;;;;;6.07;2.73;;;;;;;9.33;nan;101820.06;4920369;29;20954;-92
2021/12/15 05:47:46;;;;;;;8.80;3.10;;;;;;;9.31;nan;101813.91;4890188;29;20446;-91
2021/12/15 05:50:14;;;;;;;15.73;3.00;;;;;;;9.33;nan;101813.75;4889526;29;20486;-90
2021/12/15 05:52:44;;;;;;;6.97;3.23;;;;;;;9.43;nan;101822.69;4889434;29;20503;-91
2021/12/15 05:55:14;;;;;;;12.60;4.37;;;;;;;9.54;nan;101830.63;4886254;29;20457;-91
2021/12/15 05:57:42;;;;;;;9.10;3.17;;;;;;;9.39;nan;101815.84;4886164;29;20448;-91
2021/12/15 06:00:39;;;;;;;6.37;2.97;;;;;;;9.35;nan;101815.31;4890564;29;20828;-90
2021/12/15 06:03:20;;;;;;;6.50;2.80;;;;;;;9.41;nan;101819.28;4847388;29;20556;-90
2021/12/15 06:05:48;;;;;;;9.47;3.00;;;;;;;9.50;nan;101821.03;4831727;29;21066;-90
2021/12/15 06:08:24;;;;;;;13.83;3.87;;;;;;;9.56;nan;101820.41;4828801;29;20459;-91
2021/12/15 06:10:54;;;;;;;8.37;3.90;;;;;;;9.52;nan;101807.22;4829981;29;20490;-91
2021/12/15 06:13:30;;;;;;;15.33;3.57;;;;;;;9.67;nan;101825.56;4830021;29;20440;-90
2021/12/15 06:15:58;;;;;;;11.33;2.67;;;;;;;9.72;nan;101821.50;4829823;29;20502;-90
2021/12/15 06:18:45;;;;;;;7.87;2.70;;;;;;;9.79;nan;101820.72;4832848;29;20456;-92
2021/12/15 06:21:15;;;;;;;6.53;2.63;;;;;;;9.82;nan;101820.38;4829500;29;20458;-90
2021/12/15 06:23:43;;;;;;;7.43;2.77;;;;;;;9.89;nan;101823.31;4829780;29;20480;-91
2021/12/15 06:26:21;;;;;;;4.43;2.10;;;;;;;9.95;nan;101822.66;4829494;29;20507;-90
2021/12/15 06:28:51;;;;;;;11.23;2.23;;;;;;;9.91;nan;101815.81;4885207;29;20468;-91
2021/12/15 06:31:34;;;;;;;3.97;1.57;;;;;;;10.00;nan;101825.78;4895059;29;20532;-91
2021/12/15 06:34:05;;;;;;;8.17;2.37;;;;;;;10.06;nan;101825.09;4886224;29;21026;-90
2021/12/15 06:36:41;;;;;;;7.03;2.00;;;;;;;10.11;nan;101828.19;4871000;29;20452;-91
2021/12/15 06:39:14;;;;;;;5.63;2.27;;;;;;;10.20;nan;101838.16;4911388;29;20453;-92
2021/12/15 06:42:00;;;;;;;6.60;2.50;;;;;;;10.10;nan;101829.22;4885470;29;20464;-90
2021/12/15 06:44:40;;;;;;;14.03;2.10;;;;;;;10.16;nan;101852.31;4901423;29;20970;-92
2021/12/15 06:58:39;;;;;;;4.13;2.30;;;;;;;9.80;nan;101859.78;4909575;29;20448;-91
2021/12/15 07:01:13;;;;;;;4.43;1.60;;;;;;;9.66;nan;101856.63;4890352;29;20519;-90
2021/12/15 07:03:47;;;;;;;5.40;1.83;;;;;;;9.62;nan;101855.22;4905657;29;20448;-90
2021/12/15 07:06:15;;;;;;;11.50;2.33;;;;;;;9.58;nan;101847.53;4903818;29;20482;-89
2021/12/15 07:08:42;;;;;;;4.53;2.10;;;;;;;9.72;nan;101860.59;4888662;29;20467;-90
2021/12/15 07:11:10;;;;;;;9.20;2.33;;;;;;;9.81;nan;101865.09;4888314;29;20476;-91
2021/12/15 07:13:39;;;;;;;3.47;1.80;;;;;;;9.82;nan;101868.66;4888493;29;20794;-90
2021/12/15 07:16:09;;;;;;;7.53;3.60;;;;;;;9.76;nan;101874.78;4888192;29;20534;-90
2021/12/15 07:18:45;;;;;;;12.10;4.03;;;;;;;9.70;nan;101866.22;4830780;29;20483;-90
2021/12/15 07:21:23;;;;;;;9.97;3.47;;;;;;;9.66;nan;101875.72;4847442;29;20829;-90
2021/12/15 07:23:52;;;;;;;13.00;2.60;;;;;;;9.64;nan;101880.50;4844365;29;20464;-89
2021/12/15 07:26:20;;;;;;;9.90;4.13;;;;;;;9.63;nan;101867.84;4850977;29;20567;-89
2021/12/15 07:28:53;;;;;;;9.50;3.50;;;;;;;9.59;nan;101858.28;4831853;29;20436;-90
2021/12/15 07:31:44;;;;;;;7.83;3.83;;;;;;;9.66;nan;101867.53;4846571;29;21033;-89
2021/12/15 07:34:18;;;;;;;12.00;3.13;;;;;;;9.59;nan;101863.75;4860929;29;20451;-89
2021/12/15 07:36:46;;;;;;;6.50;2.80;;;;;;;9.60;nan;101857.28;4874468;29;20467;-90
2021/12/15 07:39:28;;;;;;;13.90;2.50;;;;;;;9.69;nan;101872.69;4891143;29;20452;-89
2021/12/15 07:42:10;;;;;;;7.33;2.50;;;;;;;9.59;nan;101855.56;4935419;29;20502;-89
2021/12/15 07:44:38;;;;;;;8.67;2.50;;;;;;;9.64;nan;101869.56;4894197;29;20436;-89
2021/12/15 07:47:07;;;;;;;6.63;2.93;;;;;;;9.63;nan;101867.84;4891278;29;20451;-89
2021/12/15 07:49:36;;;;;;;10.10;2.90;;;;;;;9.57;nan;101868.50;4906370;29;20459;-90
2021/12/15 07:52:23;;;;;;;11.23;2.37;;;;;;;9.58;nan;101885.75;4906788;29;20495;-94
2021/12/15 07:54:51;;;;;;;3.30;2.10;;;;;;;9.53;nan;101882.63;4922100;29;20440;-90
2021/12/15 07:57:20;;;;;;;7.03;2.30;;;;;;;9.48;nan;101888.56;4906186;29;20444;-91
2021/12/15 07:59:50;;;;;;;9.27;3.07;;;;;;;9.50;nan;101891.13;4891850;29;20809;-90
2021/12/15 08:02:17;;;;;;;5.93;3.17;;;;;;;9.49;nan;101882.09;4914786;29;20514;-91
2021/12/15 08:04:48;;;;;;;6.30;2.87;;;;;;;9.49;nan;101893.00;4893686;29;20452;-90
2021/12/15 08:07:17;;;;;;;9.73;4.27;;;;;;;9.48;nan;101895.88;4922208;29;20444;-90
2021/12/15 08:09:49;;;;;;;15.90;5.80;;;;;;;9.43;nan;101892.81;4906490;29;20460;-90
2021/12/15 08:12:20;;;;;;;17.50;5.90;;;;;;;9.49;nan;101893.00;4922017;29;20483;-90
2021/12/15 08:14:51;;;;;;;12.93;5.70;;;;;;;9.48;nan;101896.75;4891153;29;21029;-90
2021/12/15 08:17:20;;;;;;;9.73;5.23;;;;;;;9.48;nan;101879.50;4906634;29;20456;-91
2021/12/15 08:19:47;;;;;;;16.23;5.80;;;;;;;9.47;nan;101878.66;4905717;29;20460;-90
2021/12/15 08:22:20;;;;;;;20.70;7.13;;;;;;;9.58;nan;101892.06;4891254;29;20440;-91
2021/12/15 08:24:48;;;;;;;19.83;7.00;;;;;;;9.52;nan;101881.78;4921561;29;20440;-90
2021/12/15 08:27:22;;;;;;;29.80;8.00;;;;;;;9.63;nan;101878.78;4888222;29;20446;-91
2021/12/15 08:30:09;;;;;;;22.20;7.67;;;;;;;9.72;nan;101890.63;4906210;29;20447;-90
2021/12/15 08:32:43;;;;;;;40.63;9.70;;;;;;;9.80;nan;101895.28;4907282;29;20488;-92
2021/12/15 08:35:21;;;;;;;27.83;8.10;;;;;;;9.84;nan;101891.19;4907338;29;20455;-91
2021/12/15 08:37:51;;;;;;;21.50;6.40;;;;;;;9.83;nan;101879.41;4922057;29;20470;-91
2021/12/15 08:40:19;;;;;;;22.77;8.30;;;;;;;9.89;nan;101891.56;4891168;29;20464;-92
2021/12/15 08:42:59;;;;;;;24.93;11.40;;;;;;;9.97;nan;101892.50;4892286;29;20806;-92
2021/12/15 08:45:37;;;;;;;29.27;12.13;;;;;;;9.98;nan;101890.63;4906447;29;20463;-92
2021/12/15 08:48:37;;;;;;;26.90;11.30;;;;;;;10.11;nan;101906.56;4906126;29;20455;-93
2021/12/15 08:51:10;;;;;;;23.80;9.33;;;;;;;10.12;nan;101884.53;4921519;29;20495;-92
2021/12/15 08:53:41;;;;;;;20.83;7.63;;;;;;;10.22;nan;101890.75;4906239;29;20935;-91
2021/12/15 08:56:10;;;;;;;54.10;20.63;;;;;;;10.30;nan;101885.34;4906857;29;20819;-91
2021/12/15 08:58:41;;;;;;;49.20;21.47;;;;;;;10.45;nan;101890.19;4890757;29;20484;-90
2021/12/15 09:01:44;;;;;;;67.10;30.57;;;;;;;10.60;nan;101904.91;4906199;29;20447;-91
2021/12/15 09:04:12;;;;;;;43.57;15.80;;;;;;;10.61;nan;101892.97;4921626;29;20451;-92
2021/12/15 09:10:40;;;;;;;7.70;4.63;;;;;;;10.90;nan;101901.59;4941318;29;20451;-96
2021/12/15 09:37:45;;;;;;;3.20;1.53;;;;;;;12.42;nan;101911.78;4928929;29;20497;-88
2021/12/15 09:40:18;;;;;;;2.80;0.97;;;;;;;12.42;nan;101899.97;4891770;29;20457;-87
2021/12/15 10:02:33;;;;;;;9.63;2.00;;;;;;;13.36;nan;101923.63;4884333;29;20461;-87
2021/12/15 10:05:15;;;;;;;4.40;1.50;;;;;;;13.48;nan;101925.75;4883927;29;20465;-88
2021/12/15 10:19:23;;;;;;;9.40;3.30;;;;;;;14.01;nan;101934.03;4884488;29;21008;-88
2021/12/15 10:21:55;;;;;;;7.23;2.63;;;;;;;14.13;nan;101935.28;4881407;29;20470;-89
2021/12/15 10:24:29;;;;;;;18.00;4.53;;;;;;;14.19;nan;101931.78;4881564;29;20466;-87
2021/12/15 10:38:44;;;;;;;8.03;3.40;;;;;;;14.66;nan;101953.44;4906049;29;20488;-84
2021/12/15 10:41:32;;;;;;;8.80;2.73;;;;;;;14.77;nan;101941.09;4906713;29;20456;-84
2021/12/15 10:44:09;;;;;;;21.47;7.60;;;;;;;14.90;nan;101946.75;4869675;29;20448;-84
2021/12/15 10:46:50;;;;;;;36.30;12.70;;;;;;;15.01;nan;101940.75;4881181;29;20450;-84
2021/12/15 10:49:20;;;;;;;37.13;12.20;;;;;;;15.07;nan;101942.72;4881230;29;20588;-84
2021/12/15 10:51:53;;;;;;;77.13;26.30;;;;;;;15.12;nan;101940.25;4774186;29;20497;-84
2021/12/15 10:54:28;;;;;;;27.93;8.40;;;;;;;15.08;nan;101935.31;4720486;30;20969;-83
2021/12/15 10:57:14;;;;;;;19.80;7.27;;;;;;;15.13;nan;101941.97;4754400;30;20802;-84
2021/12/15 10:59:43;;;;;;;10.53;5.23;;;;;;;15.26;nan;101948.66;4751962;30;20483;-84
2021/12/15 11:02:32;;;;;;;9.10;3.10;;;;;;;15.35;nan;101947.50;4735665;30;20977;-84
2021/12/15 11:05:18;;;;;;;4.20;2.07;;;;;;;15.40;nan;101933.97;4735813;30;20456;-84
2021/12/15 11:07:52;;;;;;;8.20;1.90;;;;;;;15.56;nan;101944.78;4735436;30;20473;-83
2021/12/15 11:10:31;;;;;;;10.90;2.63;;;;;;;15.66;nan;101939.78;4797782;29;20465;-83
2021/12/15 11:13:03;;;;;;;10.33;1.83;;;;;;;15.79;nan;101937.13;4865359;29;20492;-83
2021/12/15 11:15:45;;;;;;;11.37;2.10;;;;;;;15.91;nan;101945.72;4877948;29;20480;-87
2021/12/15 11:18:20;;;;;;;6.83;1.80;;;;;;;16.00;nan;101951.94;4903741;29;20471;-87
2021/12/15 11:20:54;;;;;;;6.60;2.00;;;;;;;16.07;nan;101939.91;4886688;29;20476;-87
2021/12/15 11:23:23;;;;;;;4.73;2.27;;;;;;;16.09;nan;101937.81;4903178;29;20460;-86
2021/12/15 11:26:03;;;;;;;9.10;3.93;;;;;;;16.23;nan;101942.34;4887432;29;20480;-86
2021/12/15 11:28:39;;;;;;;33.00;10.00;;;;;;;16.24;nan;101926.66;4894609;29;20476;-87
2021/12/15 11:31:11;;;;;;;13.97;4.70;;;;;;;16.34;nan;101927.16;4872417;29;20452;-86
2021/12/15 11:33:46;;;;;;;17.87;3.13;;;;;;;16.45;nan;101922.97;4872149;29;20465;-86
2021/12/15 11:36:26;;;;;;;12.00;2.13;;;;;;;16.55;nan;101912.38;4887759;29;20460;-87
2021/12/15 11:39:17;;;;;;;8.07;1.73;;;;;;;16.62;nan;101924.31;4918714;29;20830;-86
2021/12/15 11:41:50;;;;;;;9.20;2.00;;;;;;;16.57;nan;101905.59;4886812;29;20519;-87
2021/12/15 11:44:25;;;;;;;6.70;1.70;;;;;;;16.65;nan;101904.63;4887798;29;20463;-86
2021/12/15 11:46:55;;;;;;;4.30;1.60;;;;;;;16.67;nan;101897.00;4885033;29;20464;-86
2021/12/15 11:49:32;;;;;;;18.30;1.80;;;;;;;16.80;nan;101891.50;4887983;29;20468;-86
2021/12/15 11:52:03;;;;;;;4.60;1.10;;;;;;;16.89;nan;101897.72;4866205;29;20489;-88
2021/12/15 11:54:53;;;;;;;6.57;1.73;;;;;;;16.97;nan;101878.19;4900316;29;20840;-86
2021/12/15 11:57:29;;;;;;;17.37;2.30;;;;;;;17.13;nan;101896.28;4918819;29;20520;-86
2021/12/15 12:00:10;;;;;;;6.63;1.30;;;;;;;17.18;nan;101879.94;4902191;29;20460;-86
2021/12/15 12:02:39;;;;;;;7.10;2.33;;;;;;;17.18;nan;101879.94;4902078;29;20818;-86
2021/12/15 12:05:32;;;;;;;6.50;1.57;;;;;;;17.30;nan;101882.94;4916201;29;20544;-86
2021/12/15 12:08:06;;;;;;;4.30;1.37;;;;;;;17.38;nan;101879.97;4901438;29;20469;-86
2021/12/15 12:10:48;;;;;;;9.13;2.00;;;;;;;17.47;nan;101873.19;4880493;29;20452;-86
2021/12/15 12:13:26;;;;;;;7.87;2.37;;;;;;;17.52;nan;101873.38;4880502;29;20494;-86
2021/12/15 12:16:18;;;;;;;10.00;1.80;;;;;;;17.57;nan;101868.91;4900421;29;20828;-86
2021/12/15 12:18:46;;;;;;;8.63;2.23;;;;;;;17.59;nan;101865.94;4916098;29;20465;-87
2021/12/15 12:21:15;;;;;;;6.53;1.33;;;;;;;17.56;nan;101866.38;4901030;29;20491;-87
2021/12/15 12:23:49;;;;;;;5.47;1.43;;;;;;;17.57;nan;101868.06;4873187;29;20462;-89
2021/12/15 12:26:26;;;;;;;10.00;2.07;;;;;;;17.64;nan;101852.38;4898423;29;21069;-87
2021/12/15 12:28:54;;;;;;;7.47;2.13;;;;;;;17.77;nan;101860.66;4900766;29;20519;-87
2021/12/15 12:31:23;;;;;;;10.80;1.50;;;;;;;17.78;nan;101854.06;4868229;29;20464;-88
2021/12/15 12:33:53;;;;;;;3.27;1.40;;;;;;;17.75;nan;101854.47;4887884;29;20461;-88
2021/12/15 12:36:35;;;;;;;8.70;1.77;;;;;;;17.76;nan;101861.72;4899497;29;20461;-86
2021/12/15 12:39:09;;;;;;;10.83;1.73;;;;;;;17.66;nan;101847.47;4917836;29;20575;-87
2021/12/15 12:41:40;;;;;;;4.23;1.33;;;;;;;17.77;nan;101845.97;4915959;29;20830;-87
2021/12/15 12:44:12;;;;;;;6.80;1.80;;;;;;;17.86;nan;101847.47;4916084;29;20861;-87
2021/12/15 12:46:55;;;;;;;10.47;2.57;;;;;;;17.77;nan;101832.16;4898826;29;20848;-86
2021/12/15 13:01:26;;;;;;;10.57;2.10;;;;;;;18.24;nan;101826.31;4899337;29;20838;-86
2021/12/15 13:03:57;;;;;;;6.20;1.60;;;;;;;18.34;nan;101814.75;4915858;29;20464;-86
2021/12/15 13:06:27;;;;;;;6.93;1.67;;;;;;;18.44;nan;101826.22;4900847;29;20457;-86
2021/12/15 13:09:07;;;;;;;5.30;1.60;;;;;;;18.44;nan;101820.69;4885489;29;20469;-86
2021/12/15 13:11:38;;;;;;;10.57;1.57;;;;;;;18.44;nan;101820.69;4897592;29;20458;-86
2021/12/15 13:14:10;;;;;;;10.43;1.60;;;;;;;18.44;nan;101822.63;4890005;29;20452;-86
2021/12/15 13:16:51;;;;;;;6.70;2.13;;;;;;;18.38;nan;101832.63;4917104;29;20449;-86
2021/12/15 13:19:19;;;;;;;9.17;1.93;;;;;;;18.39;nan;101823.25;4915778;29;20612;-86
2021/12/15 13:30:56;;;;;;;10.67;1.97;;;;;;;18.57;nan;101800.38;4904762;29;20468;-86
2021/12/15 13:33:38;;;;;;;8.00;1.70;;;;;;;18.67;nan;101803.56;4917384;29;20480;-92
2021/12/15 13:36:40;;;;;;;9.27;2.53;;;;;;;18.74;nan;101811.84;4917407;29;20464;-92
2021/12/15 13:43:03;;;;;;;7.57;1.70;;;;;;;18.83;nan;101793.91;4899797;29;20512;-93
2021/12/15 13:49:28;;;;;;;5.00;1.20;;;;;;;18.90;nan;101775.28;4911864;29;20813;-93
2021/12/15 13:52:44;;;;;;;7.73;2.13;;;;;;;19.04;nan;101787.16;4885824;29;20837;-94
2021/12/15 13:55:38;;;;;;;8.17;1.80;;;;;;;19.07;nan;101797.75;4901226;29;20875;-93
2021/12/15 13:58:39;;;;;;;6.50;1.53;;;;;;;19.08;nan;101778.13;4918180;29;20461;-93
2021/12/15 14:01:25;;;;;;;9.23;1.50;;;;;;;19.13;nan;101783.88;4887222;29;20453;-93
2021/12/15 14:04:31;;;;;;;6.30;1.50;;;;;;;19.15;nan;101778.94;4830950;29;20465;-93
2021/12/15 14:11:19;;;;;;;5.20;1.87;;;;;;;19.00;nan;101758.19;4842101;29;20477;-92
2021/12/15 14:14:26;;;;;;;8.03;1.70;;;;;;;19.13;nan;101767.22;4827475;29;20506;-94
2021/12/15 14:17:13;;;;;;;6.50;1.13;;;;;;;19.21;nan;101766.13;4843532;29;20537;-94
2021/12/15 14:19:49;;;;;;;9.50;1.73;;;;;;;19.22;nan;101740.09;4820417;29;20463;-95
2021/12/15 14:22:36;;;;;;;10.57;1.90;;;;;;;19.30;nan;101743.41;4864323;29;20500;-94
2021/12/15 14:25:06;;;;;;;5.90;1.67;;;;;;;19.37;nan;101750.84;4885331;29;20459;-94
2021/12/15 14:34:18;;;;;;;6.83;1.43;;;;;;;19.29;nan;101740.88;4913242;29;20496;-93
2021/12/15 14:36:56;;;;;;;5.70;1.27;;;;;;;19.27;nan;101743.88;4870914;29;20457;-92
2021/12/15 14:39:36;;;;;;;6.53;1.43;;;;;;;19.35;nan;101752.97;4869987;29;20511;-93
2021/12/15 14:42:42;;;;;;;9.80;1.83;;;;;;;19.34;nan;101752.13;4867427;29;20464;-94
2021/12/15 14:49:33;;;;;;;15.77;1.40;;;;;;;19.16;nan;101741.84;4902499;29;20443;-93
2021/12/15 14:52:06;;;;;;;7.20;1.63;;;;;;;19.14;nan;101744.00;4894255;29;20467;-93
2021/12/15 14:54:59;;;;;;;6.77;1.40;;;;;;;19.06;nan;101729.56;4870210;29;20438;-94
2021/12/15 14:57:30;;;;;;;9.40;1.67;;;;;;;19.03;nan;101719.78;4904023;29;20468;-94